sensor_id;sensor_type;location;lat;lon;timestamp;temperature;humidity
4425;DHT22;2225;53.568;13.266;2023-07-08T00:00:46;20.90;78.40
4425;DHT22;2225;53.568;13.266;2023-07-08T00:03:17;20.90;78.80
4425;DHT22;2225;53.568;13.266;2023-07-08T00:05:45;20.80;78.70
4425;DHT22;2225;53.568;13.266;2023-07-08T00:08:14;20.80;79.30
4425;DHT22;2225;53.568;13.266;2023-07-08T00:10:42;20.80;79.20
4425;DHT22;2225;53.568;13.266;2023-07-08T00:13:10;20.70;79.30
4425;DHT22;2225;53.568;13.266;2023-07-08T00:15:39;20.70;79.70
4425;DHT22;2225;53.568;13.266;2023-07-08T00:18:14;20.70;79.90
4425;DHT22;2225;53.568;13.266;2023-07-08T00:20:47;20.60;80.50
4425;DHT22;2225;53.568;13.266;2023-07-08T00:23:15;20.60;80.60
4425;DHT22;2225;53.568;13.266;2023-07-08T00:25:43;20.50;80.40
4425;DHT22;2225;53.568;13.266;2023-07-08T00:28:13;20.50;80.70
4425;DHT22;2225;53.568;13.266;2023-07-08T00:30:47;20.40;80.90
4425;DHT22;2225;53.568;13.266;2023-07-08T00:33:15;20.40;81.30
4425;DHT22;2225;53.568;13.266;2023-07-08T00:35:44;20.30;81.20
4425;DHT22;2225;53.568;13.266;2023-07-08T00:38:20;20.30;81.80
4425;DHT22;2225;53.568;13.266;2023-07-08T00:51:36;20.00;83.20
4425;DHT22;2225;53.568;13.266;2023-07-08T00:54:15;19.90;83.30
4425;DHT22;2225;53.568;13.266;2023-07-08T00:56:55;19.90;84.10
4425;DHT22;2225;53.568;13.266;2023-07-08T00:59:31;19.80;84.40
4425;DHT22;2225;53.568;13.266;2023-07-08T01:02:04;19.80;84.10
4425;DHT22;2225;53.568;13.266;2023-07-08T01:07:19;19.70;84.90
4425;DHT22;2225;53.568;13.266;2023-07-08T01:09:56;19.70;84.20
4425;DHT22;2225;53.568;13.266;2023-07-08T01:12:29;19.60;84.70
4425;DHT22;2225;53.568;13.266;2023-07-08T01:14:59;19.60;84.70
4425;DHT22;2225;53.568;13.266;2023-07-08T01:17:29;19.60;84.50
4425;DHT22;2225;53.568;13.266;2023-07-08T01:20:01;19.50;84.40
4425;DHT22;2225;53.568;13.266;2023-07-08T01:22:36;19.50;85.00
4425;DHT22;2225;53.568;13.266;2023-07-08T01:25:04;19.50;84.90
4425;DHT22;2225;53.568;13.266;2023-07-08T01:27:35;19.40;84.90
4425;DHT22;2225;53.568;13.266;2023-07-08T01:30:05;19.40;85.20
4425;DHT22;2225;53.568;13.266;2023-07-08T01:32:39;19.40;85.20
4425;DHT22;2225;53.568;13.266;2023-07-08T01:35:09;19.30;85.60
4425;DHT22;2225;53.568;13.266;2023-07-08T01:37:46;19.30;85.60
4425;DHT22;2225;53.568;13.266;2023-07-08T01:40:24;19.30;85.80
4425;DHT22;2225;53.568;13.266;2023-07-08T01:42:56;19.20;85.80
4425;DHT22;2225;53.568;13.266;2023-07-08T01:45:25;19.20;86.00
4425;DHT22;2225;53.568;13.266;2023-07-08T01:47:59;19.20;86.20
4425;DHT22;2225;53.568;13.266;2023-07-08T01:50:31;19.10;86.60
4425;DHT22;2225;53.568;13.266;2023-07-08T01:53:01;19.10;87.00
4425;DHT22;2225;53.568;13.266;2023-07-08T01:55:30;19.10;86.60
4425;DHT22;2225;53.568;13.266;2023-07-08T01:57:57;19.10;86.40
4425;DHT22;2225;53.568;13.266;2023-07-08T02:00:24;19.00;86.30
4425;DHT22;2225;53.568;13.266;2023-07-08T02:02:52;19.00;86.70
4425;DHT22;2225;53.568;13.266;2023-07-08T02:05:19;19.00;86.70
4425;DHT22;2225;53.568;13.266;2023-07-08T02:07:46;19.00;86.90
4425;DHT22;2225;53.568;13.266;2023-07-08T02:10:13;19.00;87.90
4425;DHT22;2225;53.568;13.266;2023-07-08T02:12:41;18.90;87.10
4425;DHT22;2225;53.568;13.266;2023-07-08T02:15:09;18.90;87.50
4425;DHT22;2225;53.568;13.266;2023-07-08T02:17:36;18.90;87.50
4425;DHT22;2225;53.568;13.266;2023-07-08T02:20:04;18.90;87.70
4425;DHT22;2225;53.568;13.266;2023-07-08T02:22:31;18.80;87.90
4425;DHT22;2225;53.568;13.266;2023-07-08T02:24:58;18.80;87.80
4425;DHT22;2225;53.568;13.266;2023-07-08T02:27:25;18.80;88.10
4425;DHT22;2225;53.568;13.266;2023-07-08T02:29:52;18.80;88.30
4425;DHT22;2225;53.568;13.266;2023-07-08T02:32:19;18.70;88.00
4425;DHT22;2225;53.568;13.266;2023-07-08T02:34:46;18.70;88.50
4425;DHT22;2225;53.568;13.266;2023-07-08T02:37:13;18.70;88.60
4425;DHT22;2225;53.568;13.266;2023-07-08T02:39:40;18.70;88.50
4425;DHT22;2225;53.568;13.266;2023-07-08T02:42:07;18.60;88.70
4425;DHT22;2225;53.568;13.266;2023-07-08T02:44:35;18.60;88.70
4425;DHT22;2225;53.568;13.266;2023-07-08T02:47:02;18.60;88.90
4425;DHT22;2225;53.568;13.266;2023-07-08T02:49:29;18.50;89.10
4425;DHT22;2225;53.568;13.266;2023-07-08T02:51:56;18.50;89.10
4425;DHT22;2225;53.568;13.266;2023-07-08T02:54:23;18.50;89.20
4425;DHT22;2225;53.568;13.266;2023-07-08T02:56:50;18.50;89.40
4425;DHT22;2225;53.568;13.266;2023-07-08T02:59:17;18.40;89.50
4425;DHT22;2225;53.568;13.266;2023-07-08T03:01:44;18.40;89.50
4425;DHT22;2225;53.568;13.266;2023-07-08T03:04:14;18.40;89.30
4425;DHT22;2225;53.568;13.266;2023-07-08T03:06:42;18.40;90.00
4425;DHT22;2225;53.568;13.266;2023-07-08T03:09:11;18.40;89.80
4425;DHT22;2225;53.568;13.266;2023-07-08T03:11:39;18.40;89.90
4425;DHT22;2225;53.568;13.266;2023-07-08T03:14:07;18.40;89.90
4425;DHT22;2225;53.568;13.266;2023-07-08T03:16:35;18.40;89.90
4425;DHT22;2225;53.568;13.266;2023-07-08T03:19:02;18.40;90.00
4425;DHT22;2225;53.568;13.266;2023-07-08T03:21:29;18.30;90.10
4425;DHT22;2225;53.568;13.266;2023-07-08T03:23:56;18.30;90.20
4425;DHT22;2225;53.568;13.266;2023-07-08T03:26:25;18.30;90.20
4425;DHT22;2225;53.568;13.266;2023-07-08T03:28:56;18.30;90.10
4425;DHT22;2225;53.568;13.266;2023-07-08T03:31:24;18.30;90.10
4425;DHT22;2225;53.568;13.266;2023-07-08T03:33:52;18.30;90.10
4425;DHT22;2225;53.568;13.266;2023-07-08T03:36:20;18.30;90.20
4425;DHT22;2225;53.568;13.266;2023-07-08T03:38:51;18.30;90.10
4425;DHT22;2225;53.568;13.266;2023-07-08T03:41:19;18.30;90.10
4425;DHT22;2225;53.568;13.266;2023-07-08T03:43:47;18.40;90.10
4425;DHT22;2225;53.568;13.266;2023-07-08T03:46:15;18.40;90.30
4425;DHT22;2225;53.568;13.266;2023-07-08T03:48:44;18.40;90.40
4425;DHT22;2225;53.568;13.266;2023-07-08T03:51:23;18.40;90.30
4425;DHT22;2225;53.568;13.266;2023-07-08T03:53:57;18.40;90.50
4425;DHT22;2225;53.568;13.266;2023-07-08T03:56:24;18.40;90.30
4425;DHT22;2225;53.568;13.266;2023-07-08T03:58:51;18.40;90.30
4425;DHT22;2225;53.568;13.266;2023-07-08T04:01:21;18.40;90.40
4425;DHT22;2225;53.568;13.266;2023-07-08T04:03:55;18.40;90.50
4425;DHT22;2225;53.568;13.266;2023-07-08T04:06:23;18.50;90.90
4425;DHT22;2225;53.568;13.266;2023-07-08T04:08:51;18.60;91.10
4425;DHT22;2225;53.568;13.266;2023-07-08T04:11:21;18.80;91.20
4425;DHT22;2225;53.568;13.266;2023-07-08T04:13:49;19.00;91.20
4425;DHT22;2225;53.568;13.266;2023-07-08T04:16:24;19.20;91.20
4425;DHT22;2225;53.568;13.266;2023-07-08T04:18:55;19.50;90.90
4425;DHT22;2225;53.568;13.266;2023-07-08T04:21:24;19.80;90.60
4425;DHT22;2225;53.568;13.266;2023-07-08T04:23:54;20.10;90.30
4425;DHT22;2225;53.568;13.266;2023-07-08T04:26:21;20.40;90.10
4425;DHT22;2225;53.568;13.266;2023-07-08T04:28:48;20.70;89.60
4425;DHT22;2225;53.568;13.266;2023-07-08T04:31:15;20.90;88.20
4425;DHT22;2225;53.568;13.266;2023-07-08T04:33:42;21.30;87.80
4425;DHT22;2225;53.568;13.266;2023-07-08T04:36:13;21.50;86.90
4425;DHT22;2225;53.568;13.266;2023-07-08T04:38:40;21.80;85.70
4425;DHT22;2225;53.568;13.266;2023-07-08T04:41:08;22.00;85.60
4425;DHT22;2225;53.568;13.266;2023-07-08T04:43:35;22.20;84.20
4425;DHT22;2225;53.568;13.266;2023-07-08T04:46:02;22.40;82.90
4425;DHT22;2225;53.568;13.266;2023-07-08T04:48:43;22.50;81.90
4425;DHT22;2225;53.568;13.266;2023-07-08T04:51:12;22.60;81.20
4425;DHT22;2225;53.568;13.266;2023-07-08T04:53:39;22.70;80.40
4425;DHT22;2225;53.568;13.266;2023-07-08T04:56:07;22.70;79.50
4425;DHT22;2225;53.568;13.266;2023-07-08T04:58:35;22.70;79.30
4425;DHT22;2225;53.568;13.266;2023-07-08T05:01:02;22.70;79.20
4425;DHT22;2225;53.568;13.266;2023-07-08T05:03:29;22.60;79.50
4425;DHT22;2225;53.568;13.266;2023-07-08T05:05:56;22.60;79.50
4425;DHT22;2225;53.568;13.266;2023-07-08T05:08:23;22.50;79.70
4425;DHT22;2225;53.568;13.266;2023-07-08T05:10:49;22.50;79.90
4425;DHT22;2225;53.568;13.266;2023-07-08T05:13:16;22.40;80.20
4425;DHT22;2225;53.568;13.266;2023-07-08T05:15:43;22.40;80.70
4425;DHT22;2225;53.568;13.266;2023-07-08T05:18:10;22.30;80.90
4425;DHT22;2225;53.568;13.266;2023-07-08T05:20:37;22.30;81.20
4425;DHT22;2225;53.568;13.266;2023-07-08T05:23:04;22.20;81.40
4425;DHT22;2225;53.568;13.266;2023-07-08T05:25:32;22.10;81.60
4425;DHT22;2225;53.568;13.266;2023-07-08T05:27:59;22.10;81.90
4425;DHT22;2225;53.568;13.266;2023-07-08T05:30:26;22.10;82.30
4425;DHT22;2225;53.568;13.266;2023-07-08T05:32:53;22.00;82.50
4425;DHT22;2225;53.568;13.266;2023-07-08T05:35:20;22.00;82.80
4425;DHT22;2225;53.568;13.266;2023-07-08T05:37:47;22.00;83.00
4425;DHT22;2225;53.568;13.266;2023-07-08T05:40:15;21.90;83.40
4425;DHT22;2225;53.568;13.266;2023-07-08T05:42:46;21.90;83.60
4425;DHT22;2225;53.568;13.266;2023-07-08T05:45:23;21.90;84.30
4425;DHT22;2225;53.568;13.266;2023-07-08T05:47:50;21.90;84.50
4425;DHT22;2225;53.568;13.266;2023-07-08T05:50:17;21.90;85.00
4425;DHT22;2225;53.568;13.266;2023-07-08T05:52:44;21.90;85.00
4425;DHT22;2225;53.568;13.266;2023-07-08T05:55:11;21.90;85.30
4425;DHT22;2225;53.568;13.266;2023-07-08T05:57:38;21.90;85.50
4425;DHT22;2225;53.568;13.266;2023-07-08T06:00:06;22.00;85.80
4425;DHT22;2225;53.568;13.266;2023-07-08T06:02:37;22.00;86.10
4425;DHT22;2225;53.568;13.266;2023-07-08T06:05:04;22.10;86.20
4425;DHT22;2225;53.568;13.266;2023-07-08T06:07:32;22.20;86.30
4425;DHT22;2225;53.568;13.266;2023-07-08T06:09:59;22.30;86.30
4425;DHT22;2225;53.568;13.266;2023-07-08T06:12:27;22.30;86.40
4425;DHT22;2225;53.568;13.266;2023-07-08T06:14:54;22.40;86.50
4425;DHT22;2225;53.568;13.266;2023-07-08T06:17:21;22.50;86.30
4425;DHT22;2225;53.568;13.266;2023-07-08T06:19:48;22.70;86.40
4425;DHT22;2225;53.568;13.266;2023-07-08T06:22:15;22.80;86.20
4425;DHT22;2225;53.568;13.266;2023-07-08T06:25:03;22.90;86.00
4425;DHT22;2225;53.568;13.266;2023-07-08T06:27:30;23.00;84.40
4425;DHT22;2225;53.568;13.266;2023-07-08T06:29:57;23.20;83.50
4425;DHT22;2225;53.568;13.266;2023-07-08T06:32:24;23.30;82.00
4425;DHT22;2225;53.568;13.266;2023-07-08T06:34:51;23.40;80.80
4425;DHT22;2225;53.568;13.266;2023-07-08T06:37:18;23.50;77.70
4425;DHT22;2225;53.568;13.266;2023-07-08T06:39:45;23.60;77.30
4425;DHT22;2225;53.568;13.266;2023-07-08T06:42:12;23.80;75.70
4425;DHT22;2225;53.568;13.266;2023-07-08T06:44:46;23.90;74.20
4425;DHT22;2225;53.568;13.266;2023-07-08T06:47:20;24.00;72.80
4425;DHT22;2225;53.568;13.266;2023-07-08T06:49:48;24.10;72.00
4425;DHT22;2225;53.568;13.266;2023-07-08T06:52:15;24.20;72.20
4425;DHT22;2225;53.568;13.266;2023-07-08T06:54:42;24.30;71.60
4425;DHT22;2225;53.568;13.266;2023-07-08T06:57:09;24.30;71.70
4425;DHT22;2225;53.568;13.266;2023-07-08T06:59:36;24.40;71.80
4425;DHT22;2225;53.568;13.266;2023-07-08T07:02:03;24.50;71.50
4425;DHT22;2225;53.568;13.266;2023-07-08T07:04:30;24.60;71.60
4425;DHT22;2225;53.568;13.266;2023-07-08T07:06:58;24.70;71.60
4425;DHT22;2225;53.568;13.266;2023-07-08T07:09:25;24.70;71.40
4425;DHT22;2225;53.568;13.266;2023-07-08T07:11:52;24.80;71.10
4425;DHT22;2225;53.568;13.266;2023-07-08T07:14:20;25.00;70.70
4425;DHT22;2225;53.568;13.266;2023-07-08T07:16:50;25.00;70.70
4425;DHT22;2225;53.568;13.266;2023-07-08T07:19:23;25.10;70.70
4425;DHT22;2225;53.568;13.266;2023-07-08T07:21:50;25.20;71.50
4425;DHT22;2225;53.568;13.266;2023-07-08T07:24:18;25.30;72.10
4425;DHT22;2225;53.568;13.266;2023-07-08T07:26:45;25.40;71.70
4425;DHT22;2225;53.568;13.266;2023-07-08T07:29:15;25.50;71.70
4425;DHT22;2225;53.568;13.266;2023-07-08T07:31:43;25.60;70.80
4425;DHT22;2225;53.568;13.266;2023-07-08T07:34:10;25.70;70.20
4425;DHT22;2225;53.568;13.266;2023-07-08T07:36:38;25.70;69.10
4425;DHT22;2225;53.568;13.266;2023-07-08T07:39:05;25.80;68.40
4425;DHT22;2225;53.568;13.266;2023-07-08T07:41:32;25.90;68.60
4425;DHT22;2225;53.568;13.266;2023-07-08T07:43:59;26.00;67.40
4425;DHT22;2225;53.568;13.266;2023-07-08T07:46:26;26.10;68.30
4425;DHT22;2225;53.568;13.266;2023-07-08T07:48:53;26.10;67.40
4425;DHT22;2225;53.568;13.266;2023-07-08T07:51:20;26.30;66.90
4425;DHT22;2225;53.568;13.266;2023-07-08T07:53:47;26.30;66.30
4425;DHT22;2225;53.568;13.266;2023-07-08T07:56:14;26.40;66.00
4425;DHT22;2225;53.568;13.266;2023-07-08T07:58:41;26.50;65.90
4425;DHT22;2225;53.568;13.266;2023-07-08T08:01:08;26.50;65.60
4425;DHT22;2225;53.568;13.266;2023-07-08T08:03:35;26.60;65.50
4425;DHT22;2225;53.568;13.266;2023-07-08T08:06:02;26.70;66.00
4425;DHT22;2225;53.568;13.266;2023-07-08T08:08:29;26.80;66.60
4425;DHT22;2225;53.568;13.266;2023-07-08T08:10:56;26.90;65.20
4425;DHT22;2225;53.568;13.266;2023-07-08T08:13:23;26.90;65.10
4425;DHT22;2225;53.568;13.266;2023-07-08T08:15:58;27.00;64.30
4425;DHT22;2225;53.568;13.266;2023-07-08T08:18:26;27.10;63.60
4425;DHT22;2225;53.568;13.266;2023-07-08T08:20:53;27.10;63.40
4425;DHT22;2225;53.568;13.266;2023-07-08T08:23:20;27.20;64.20
4425;DHT22;2225;53.568;13.266;2023-07-08T08:25:48;27.20;64.30
4425;DHT22;2225;53.568;13.266;2023-07-08T08:28:16;27.40;64.90
4425;DHT22;2225;53.568;13.266;2023-07-08T08:30:50;27.40;65.00
4425;DHT22;2225;53.568;13.266;2023-07-08T08:33:18;27.50;65.30
4425;DHT22;2225;53.568;13.266;2023-07-08T08:35:46;27.50;65.00
4425;DHT22;2225;53.568;13.266;2023-07-08T08:38:13;27.60;64.90
4425;DHT22;2225;53.568;13.266;2023-07-08T08:40:41;27.70;64.10
4425;DHT22;2225;53.568;13.266;2023-07-08T08:43:22;27.80;64.90
4425;DHT22;2225;53.568;13.266;2023-07-08T08:48:25;27.90;61.60
4425;DHT22;2225;53.568;13.266;2023-07-08T08:51:00;28.00;60.30
4425;DHT22;2225;53.568;13.266;2023-07-08T08:53:31;28.00;60.70
4425;DHT22;2225;53.568;13.266;2023-07-08T08:56:27;28.10;61.30
4425;DHT22;2225;53.568;13.266;2023-07-08T08:59:07;28.10;60.50
4425;DHT22;2225;53.568;13.266;2023-07-08T09:01:55;28.10;60.40
4425;DHT22;2225;53.568;13.266;2023-07-08T09:04:27;28.20;60.70
4425;DHT22;2225;53.568;13.266;2023-07-08T09:07:07;28.20;60.00
4425;DHT22;2225;53.568;13.266;2023-07-08T09:09:47;28.20;60.10
4425;DHT22;2225;53.568;13.266;2023-07-08T09:12:25;28.20;59.50
4425;DHT22;2225;53.568;13.266;2023-07-08T09:14:53;28.30;59.30
4425;DHT22;2225;53.568;13.266;2023-07-08T09:17:27;28.30;58.90
4425;DHT22;2225;53.568;13.266;2023-07-08T09:25:47;28.50;58.40
4425;DHT22;2225;53.568;13.266;2023-07-08T09:28:18;28.60;58.90
4425;DHT22;2225;53.568;13.266;2023-07-08T09:30:53;28.70;58.50
4425;DHT22;2225;53.568;13.266;2023-07-08T09:33:20;28.80;58.60
4425;DHT22;2225;53.568;13.266;2023-07-08T09:35:48;28.90;58.50
4425;DHT22;2225;53.568;13.266;2023-07-08T09:38:17;29.00;57.10
4425;DHT22;2225;53.568;13.266;2023-07-08T09:40:52;29.00;57.00
4425;DHT22;2225;53.568;13.266;2023-07-08T09:43:34;29.10;57.00
4425;DHT22;2225;53.568;13.266;2023-07-08T09:46:04;29.10;56.40
4425;DHT22;2225;53.568;13.266;2023-07-08T09:48:36;29.20;56.70
4425;DHT22;2225;53.568;13.266;2023-07-08T09:51:04;29.20;56.60
4425;DHT22;2225;53.568;13.266;2023-07-08T09:53:33;29.20;56.60
4425;DHT22;2225;53.568;13.266;2023-07-08T09:56:02;29.30;56.50
4425;DHT22;2225;53.568;13.266;2023-07-08T09:58:34;29.40;56.50
4425;DHT22;2225;53.568;13.266;2023-07-08T10:01:13;29.40;56.80
4425;DHT22;2225;53.568;13.266;2023-07-08T10:03:50;29.50;56.30
4425;DHT22;2225;53.568;13.266;2023-07-08T10:06:24;29.50;55.50
4425;DHT22;2225;53.568;13.266;2023-07-08T10:08:54;29.50;55.80
4425;DHT22;2225;53.568;13.266;2023-07-08T10:11:35;29.60;56.00
4425;DHT22;2225;53.568;13.266;2023-07-08T10:14:11;29.60;56.20
4425;DHT22;2225;53.568;13.266;2023-07-08T10:16:46;29.60;56.10
4425;DHT22;2225;53.568;13.266;2023-07-08T10:19:16;29.60;56.20
4425;DHT22;2225;53.568;13.266;2023-07-08T10:33:10;30.00;55.30
4425;DHT22;2225;53.568;13.266;2023-07-08T10:39:04;30.20;55.60
4425;DHT22;2225;53.568;13.266;2023-07-08T10:44:47;30.20;55.40
4425;DHT22;2225;53.568;13.266;2023-07-08T10:47:54;30.20;55.60
4425;DHT22;2225;53.568;13.266;2023-07-08T10:54:13;30.30;54.80
4425;DHT22;2225;53.568;13.266;2023-07-08T10:56:58;30.40;54.80
4425;DHT22;2225;53.568;13.266;2023-07-08T10:59:41;30.40;54.60
4425;DHT22;2225;53.568;13.266;2023-07-08T11:05:40;30.50;53.20
4425;DHT22;2225;53.568;13.266;2023-07-08T11:08:19;30.50;54.20
4425;DHT22;2225;53.568;13.266;2023-07-08T11:11:15;30.50;53.90
4425;DHT22;2225;53.568;13.266;2023-07-08T11:13:58;30.50;54.30
4425;DHT22;2225;53.568;13.266;2023-07-08T11:16:39;30.60;54.90
4425;DHT22;2225;53.568;13.266;2023-07-08T11:19:21;30.70;53.20
4425;DHT22;2225;53.568;13.266;2023-07-08T11:22:00;30.80;53.80
4425;DHT22;2225;53.568;13.266;2023-07-08T11:24:39;30.80;53.50
4425;DHT22;2225;53.568;13.266;2023-07-08T11:27:26;30.80;53.00
4425;DHT22;2225;53.568;13.266;2023-07-08T11:32:39;31.00;52.80
4425;DHT22;2225;53.568;13.266;2023-07-08T11:35:19;31.00;52.00
4425;DHT22;2225;53.568;13.266;2023-07-08T11:37:50;31.10;51.20
4425;DHT22;2225;53.568;13.266;2023-07-08T11:40:20;31.20;51.40
4425;DHT22;2225;53.568;13.266;2023-07-08T11:42:53;31.30;51.20
4425;DHT22;2225;53.568;13.266;2023-07-08T11:45:33;31.30;51.00
4425;DHT22;2225;53.568;13.266;2023-07-08T11:48:12;31.40;50.80
4425;DHT22;2225;53.568;13.266;2023-07-08T11:50:42;31.40;50.60
4425;DHT22;2225;53.568;13.266;2023-07-08T11:53:12;31.40;50.90
4425;DHT22;2225;53.568;13.266;2023-07-08T11:59:19;31.50;49.50
4425;DHT22;2225;53.568;13.266;2023-07-08T12:02:01;31.60;49.40
4425;DHT22;2225;53.568;13.266;2023-07-08T12:04:32;31.60;49.30
4425;DHT22;2225;53.568;13.266;2023-07-08T12:13:02;31.60;47.20
4425;DHT22;2225;53.568;13.266;2023-07-08T12:15:32;31.70;47.60
4425;DHT22;2225;53.568;13.266;2023-07-08T12:18:11;31.70;48.30
4425;DHT22;2225;53.568;13.266;2023-07-08T12:20:44;31.70;47.80
4425;DHT22;2225;53.568;13.266;2023-07-08T12:23:17;31.70;47.50
4425;DHT22;2225;53.568;13.266;2023-07-08T12:25:49;31.80;47.90
4425;DHT22;2225;53.568;13.266;2023-07-08T12:28:17;31.80;48.30
4425;DHT22;2225;53.568;13.266;2023-07-08T12:30:46;31.90;47.60
4425;DHT22;2225;53.568;13.266;2023-07-08T12:33:26;31.90;47.70
4425;DHT22;2225;53.568;13.266;2023-07-08T12:35:56;32.00;47.50
4425;DHT22;2225;53.568;13.266;2023-07-08T12:38:28;32.00;47.20
4425;DHT22;2225;53.568;13.266;2023-07-08T12:41:05;32.00;47.20
4425;DHT22;2225;53.568;13.266;2023-07-08T12:43:36;32.10;47.40
4425;DHT22;2225;53.568;13.266;2023-07-08T12:46:03;32.10;47.00
4425;DHT22;2225;53.568;13.266;2023-07-08T12:48:34;32.20;46.70
4425;DHT22;2225;53.568;13.266;2023-07-08T12:51:03;32.20;45.70
4425;DHT22;2225;53.568;13.266;2023-07-08T12:53:31;32.30;45.70
4425;DHT22;2225;53.568;13.266;2023-07-08T12:56:01;32.30;45.50
4425;DHT22;2225;53.568;13.266;2023-07-08T12:58:31;32.30;45.70
4425;DHT22;2225;53.568;13.266;2023-07-08T13:01:02;32.30;47.00
4425;DHT22;2225;53.568;13.266;2023-07-08T13:03:37;32.30;47.50
4425;DHT22;2225;53.568;13.266;2023-07-08T13:06:09;32.30;47.70
4425;DHT22;2225;53.568;13.266;2023-07-08T13:08:38;32.30;46.20
4425;DHT22;2225;53.568;13.266;2023-07-08T13:11:06;32.40;46.10
4425;DHT22;2225;53.568;13.266;2023-07-08T13:13:37;32.40;46.70
4425;DHT22;2225;53.568;13.266;2023-07-08T13:16:05;32.40;47.30
4425;DHT22;2225;53.568;13.266;2023-07-08T13:18:38;32.40;47.80
4425;DHT22;2225;53.568;13.266;2023-07-08T13:21:10;32.40;47.30
4425;DHT22;2225;53.568;13.266;2023-07-08T13:23:39;32.40;47.30
4425;DHT22;2225;53.568;13.266;2023-07-08T13:26:15;32.40;47.30
4425;DHT22;2225;53.568;13.266;2023-07-08T13:28:44;32.40;47.10
4425;DHT22;2225;53.568;13.266;2023-07-08T13:31:23;32.40;46.20
4425;DHT22;2225;53.568;13.266;2023-07-08T13:33:53;32.40;45.70
4425;DHT22;2225;53.568;13.266;2023-07-08T13:36:24;32.40;46.00
4425;DHT22;2225;53.568;13.266;2023-07-08T13:39:02;32.40;45.60
4425;DHT22;2225;53.568;13.266;2023-07-08T13:41:32;32.40;46.60
4425;DHT22;2225;53.568;13.266;2023-07-08T13:44:07;32.40;46.60
4425;DHT22;2225;53.568;13.266;2023-07-08T13:46:37;32.40;47.20
4425;DHT22;2225;53.568;13.266;2023-07-08T13:49:15;32.40;47.50
4425;DHT22;2225;53.568;13.266;2023-07-08T13:51:48;32.40;47.90
4425;DHT22;2225;53.568;13.266;2023-07-08T13:54:25;32.30;47.50
4425;DHT22;2225;53.568;13.266;2023-07-08T13:56:53;32.30;47.70
4425;DHT22;2225;53.568;13.266;2023-07-08T13:59:25;32.30;47.80
4425;DHT22;2225;53.568;13.266;2023-07-08T14:01:55;32.30;48.10
4425;DHT22;2225;53.568;13.266;2023-07-08T14:04:34;32.30;47.60
4425;DHT22;2225;53.568;13.266;2023-07-08T14:07:01;32.30;47.90
4425;DHT22;2225;53.568;13.266;2023-07-08T14:09:28;32.30;47.70
4425;DHT22;2225;53.568;13.266;2023-07-08T14:11:55;32.20;48.60
4425;DHT22;2225;53.568;13.266;2023-07-08T14:14:22;32.10;48.50
4425;DHT22;2225;53.568;13.266;2023-07-08T14:16:51;32.10;48.60
4425;DHT22;2225;53.568;13.266;2023-07-08T14:19:26;32.00;49.00
4425;DHT22;2225;53.568;13.266;2023-07-08T14:22:22;31.90;48.90
4425;DHT22;2225;53.568;13.266;2023-07-08T14:24:54;31.90;48.60
4425;DHT22;2225;53.568;13.266;2023-07-08T14:27:21;31.80;49.30
4425;DHT22;2225;53.568;13.266;2023-07-08T14:29:50;31.70;48.60
4425;DHT22;2225;53.568;13.266;2023-07-08T14:32:21;31.70;49.00
4425;DHT22;2225;53.568;13.266;2023-07-08T14:34:52;31.70;49.20
4425;DHT22;2225;53.568;13.266;2023-07-08T14:37:21;31.70;49.50
4425;DHT22;2225;53.568;13.266;2023-07-08T14:39:49;31.70;49.30
4425;DHT22;2225;53.568;13.266;2023-07-08T14:42:19;31.60;48.60
4425;DHT22;2225;53.568;13.266;2023-07-08T14:44:48;31.50;49.30
4425;DHT22;2225;53.568;13.266;2023-07-08T14:47:18;31.50;48.80
4425;DHT22;2225;53.568;13.266;2023-07-08T14:49:46;31.50;49.00
4425;DHT22;2225;53.568;13.266;2023-07-08T14:52:13;31.40;49.60
4425;DHT22;2225;53.568;13.266;2023-07-08T14:54:40;31.30;49.60
4425;DHT22;2225;53.568;13.266;2023-07-08T14:57:07;31.20;49.30
4425;DHT22;2225;53.568;13.266;2023-07-08T14:59:37;31.30;48.90
4425;DHT22;2225;53.568;13.266;2023-07-08T15:02:18;31.30;48.80
4425;DHT22;2225;53.568;13.266;2023-07-08T15:04:47;31.30;48.50
4425;DHT22;2225;53.568;13.266;2023-07-08T15:07:14;31.20;48.40
4425;DHT22;2225;53.568;13.266;2023-07-08T15:09:41;31.20;48.10
4425;DHT22;2225;53.568;13.266;2023-07-08T15:12:10;31.20;48.40
4425;DHT22;2225;53.568;13.266;2023-07-08T15:14:38;31.20;47.90
4425;DHT22;2225;53.568;13.266;2023-07-08T15:17:15;31.20;48.00
4425;DHT22;2225;53.568;13.266;2023-07-08T15:19:46;31.20;47.90
4425;DHT22;2225;53.568;13.266;2023-07-08T15:22:12;31.10;48.10
4425;DHT22;2225;53.568;13.266;2023-07-08T15:24:39;31.10;47.70
4425;DHT22;2225;53.568;13.266;2023-07-08T15:27:11;31.00;47.80
4425;DHT22;2225;53.568;13.266;2023-07-08T15:29:39;31.00;47.80
4425;DHT22;2225;53.568;13.266;2023-07-08T15:32:12;31.00;47.50
4425;DHT22;2225;53.568;13.266;2023-07-08T15:35:00;31.10;47.10
4425;DHT22;2225;53.568;13.266;2023-07-08T15:37:27;31.10;47.00
4425;DHT22;2225;53.568;13.266;2023-07-08T15:39:54;31.00;46.70
4425;DHT22;2225;53.568;13.266;2023-07-08T15:42:21;30.90;46.70
4425;DHT22;2225;53.568;13.266;2023-07-08T15:44:48;30.90;46.80
4425;DHT22;2225;53.568;13.266;2023-07-08T15:47:18;30.90;46.80
4425;DHT22;2225;53.568;13.266;2023-07-08T15:49:46;30.80;46.40
4425;DHT22;2225;53.568;13.266;2023-07-08T15:52:12;30.80;46.50
4425;DHT22;2225;53.568;13.266;2023-07-08T15:54:39;30.80;46.00
4425;DHT22;2225;53.568;13.266;2023-07-08T15:57:08;30.70;45.70
4425;DHT22;2225;53.568;13.266;2023-07-08T15:59:41;30.70;45.90
4425;DHT22;2225;53.568;13.266;2023-07-08T16:02:26;30.60;45.70
4425;DHT22;2225;53.568;13.266;2023-07-08T16:04:54;30.50;45.50
4425;DHT22;2225;53.568;13.266;2023-07-08T16:07:21;30.40;45.50
4425;DHT22;2225;53.568;13.266;2023-07-08T16:09:48;30.40;45.30
4425;DHT22;2225;53.568;13.266;2023-07-08T16:12:18;30.40;45.80
4425;DHT22;2225;53.568;13.266;2023-07-08T16:14:48;30.30;45.90
4425;DHT22;2225;53.568;13.266;2023-07-08T16:17:15;30.20;45.40
4425;DHT22;2225;53.568;13.266;2023-07-08T16:19:42;30.10;45.20
4425;DHT22;2225;53.568;13.266;2023-07-08T16:22:09;30.10;45.30
4425;DHT22;2225;53.568;13.266;2023-07-08T16:24:36;30.10;45.20
4425;DHT22;2225;53.568;13.266;2023-07-08T16:27:04;30.00;45.10
4425;DHT22;2225;53.568;13.266;2023-07-08T16:29:32;30.00;45.10
4425;DHT22;2225;53.568;13.266;2023-07-08T16:31:59;29.80;45.00
4425;DHT22;2225;53.568;13.266;2023-07-08T16:34:26;29.80;45.50
4425;DHT22;2225;53.568;13.266;2023-07-08T16:36:53;29.70;45.40
4425;DHT22;2225;53.568;13.266;2023-07-08T16:39:20;29.70;44.90
4425;DHT22;2225;53.568;13.266;2023-07-08T16:41:47;29.80;44.70
4425;DHT22;2225;53.568;13.266;2023-07-08T16:44:15;30.00;44.00
4425;DHT22;2225;53.568;13.266;2023-07-08T16:46:43;30.10;43.80
4425;DHT22;2225;53.568;13.266;2023-07-08T16:49:11;30.30;43.50
4425;DHT22;2225;53.568;13.266;2023-07-08T16:51:38;30.40;43.60
4425;DHT22;2225;53.568;13.266;2023-07-08T16:54:16;30.60;43.10
4425;DHT22;2225;53.568;13.266;2023-07-08T16:56:45;30.60;42.90
4425;DHT22;2225;53.568;13.266;2023-07-08T16:59:15;30.80;42.50
4425;DHT22;2225;53.568;13.266;2023-07-08T17:01:44;30.90;42.50
4425;DHT22;2225;53.568;13.266;2023-07-08T17:04:12;31.00;42.20